Grand Blanc, Michigan
Current Conditions -  °F | °C
As of 5:53 AM on Sunday 23 Nov 2014 (Local Time) from KFNT Reporting Station
Overcast Overcast  
Wind Chill: 46°   Ceiling: 2000
Heat Index: 49°   Visibility: 9mi
Dew Point: 44°   Wind: 7mph
Humidity: 83%   Direction: 170°S
Pressure: 29.89"   Gusts: NA
Location:  42.93°N, 83.63°W
Report Text: KFNT 231053Z 17006KT 9SM OVC020 09/07 A2989 RMK AO2 SLP124 T00940067
Loading
Personal Weather Stations






























Interactive Weather Map New forecast layout! Learn more

10-Day Weather Forecast

Advertisements
Track Severe Weather on mobile